Tiempo atmosférico en la estación meteorológica de Torremolinos, Málaga (85 m.)



Fecha
DESCASC
Temp. máxima en grados centígrados (hora)
DESCASC
Temp. mínima en grados centígrados (hora)
DESCASC
Temp. media en grados centígrados
DESCASC
Racha de viento máxima en m/sg (hora)
DESCASC
Velocidad máxima media en intervalos de 10 minutos(hora)
DESCASC
Precipitaciones diarias en mm
DESCASC
Precipitaciones de 00:00 a 06:00 en mm
DESCASC
Precipitaciones de 06:00 a 12:00 en mm
DESCASC
Precipitaciones de 12:00 a 18:00 en mm
DESCASC
Precipitaciones de 18:00 a 24:00 en mm
DESCASC
13-01-2021 16.2 (16:40) 6.1 (08:40) 11.2 11.11 (23:20) 4.72 (23:50) -- -- -- -- --
12-01-2021 15.1 (13:10) 8.5 (20:30) 11.8 8.61 (10:10) 3.61 (09:10) -- -- -- -- --
11-01-2021 13.5 (14:40) 5.7 (07:10) 9.6 6.11 (22:50) 2.78 (23:50) -- -- -- -- --
10-01-2021 7.8 (00:00) 4.4 (13:10) 6.1 6.67 (12:30) 2.5 (12:30) -- -- -- -- --
09-01-2021 14.1 (14:20) 7.4 (00:00) 10.8 7.78 (14:40) 3.61 (15:30) -- -- -- -- --
08-01-2021 13.1 (23:00) 10.7 (00:00) 11.9 15.83 (20:30) 8.61 (20:10) -- -- -- -- --
07-01-2021 11.3 (21:10) 8.9 (00:00) 10.1 7.78 (10:40) 3.06 (13:30) -- -- -- -- --
06-01-2021 11.7 (17:20) 9.1 (00:00) 10.4 10 (20:10) 5 (20:10) 0 0 0 0 0
05-01-2021 14.1 (11:50) 8.2 (00:00) 11.2 6.39 (21:50) 2.5 (07:00) 2.2 0 0 0 2.2
04-01-2021 15.3 (15:40) 6.9 (00:00) 11.1 7.78 (00:10) 3.61 (00:30) 0 0 0 0 0
03-01-2021 14.6 (15:30) 6.5 (00:00) 10.6 11.11 (08:00) 4.44 (09:20) 0 0 0 0 0
02-01-2021 14.2 (14:50) 7.5 (00:00) 10.8 9.17 (10:50) 3.61 (10:50) 0 0 0 0 0
01-01-2021 15.2 (16:10) 8.6 (00:00) 11.9 11.11 (14:10) 3.06 (13:30) 0 0 0 0 0
31-12-2020 16 (16:00) 9.1 (00:00) 12.6 13.06 (12:50) 6.39 (09:40) 0 0 0 0 0
30-12-2020 15.1 (14:40) 7.3 (00:00) 11.2 14.17 (22:20) 6.39 (21:20) 0 0 0 0 0
29-12-2020 16.9 (14:40) 7.9 (00:00) 12.4 9.72 (03:30) 3.33 (00:40) 0 0 0 0 0
28-12-2020 18.9 (13:30) 9.8 (00:00) 14.3 8.61 (13:20) 3.61 (05:00) 0 0 0 0 0
27-12-2020 15.2 (16:10) 6.8 (00:00) 11 7.5 (16:30) 2.5 (14:40) 0 0 0 0 0
26-12-2020 15.1 (14:10) 10 (00:00) 12.6 6.94 (00:40) 3.33 (01:20) 0 0 0 0 0
25-12-2020 18.3 (13:00) 11.6 (00:00) 14.9 4.17 (13:30) 2.5 (23:59) 0 0 0 0 0
24-12-2020 21 (13:50) 14.5 (00:00) 17.8 9.17 (02:30) 3.89 (03:50) 0 0 0 0 0
23-12-2020 18.8 (16:30) 10.3 (00:00) 14.5 7.22 (23:20) 3.06 (14:40) 0 0 0 0 0
22-12-2020 18.4 (16:20) 11.2 (00:00) 14.8 3.89 (12:40) 1.94 (12:40) 0 0 0 0 0
21-12-2020 18.5 (13:30) 11.7 (00:00) 15.1 11.11 (00:10) 5.56 (00:10) 0 0 0 0 0
20-12-2020 19.9 (13:10) 11.4 (00:00) 15.6 14.72 (19:30) 6.11 (20:00) 0.2 0 0 0.2 0
19-12-2020 16.5 (12:40) 10.8 (00:00) 13.7 5 (14:30) 2.5 (13:40) 0 0 0 0 0
18-12-2020 17.6 (15:00) 10 (00:00) 13.8 3.61 (13:00) 1.94 (13:00) 0 0 0 0 0
17-12-2020 17.6 (14:20) 11.2 (00:00) 14.4 5.83 (07:50) 1.94 (14:20) 0 0 0 0 0

Gráficas

Temp. máximas Temp. mínimas Temp. medias Precipitaciones Rachas de viento máximas Velocidades máximas media en intervalos de 10 minutos

Datos horarios

Fecha y hora oficial Temperatura (ºC) Velocidad del viento (km/h) Dirección del viento Racha (km/h) Dirección de racha Precipitación (mm) Presión (hPa) Tendencia (hPa) Humedad (%)
2021-01-15 23:00:00 14.1 20 Noroeste 47 Noroeste -- -- -- 42
2021-01-15 22:00:00 14 21 Noroeste 46 Noroeste -- -- -- 43
2021-01-15 21:00:00 14.2 18 Noroeste 42 Norte -- -- -- 42
2021-01-15 20:00:00 14.7 21 Noroeste 44 Noroeste -- -- -- 39
2021-01-15 19:00:00 15.4 17 Noroeste 44 Noroeste -- -- -- 36
2021-01-15 18:00:00 16.4 10 Norte 48 Norte -- -- -- 32
2021-01-15 17:00:00 18.5 15 Norte 38 Noroeste -- -- -- 30
2021-01-15 16:00:00 20 9 Norte 36 Norte -- -- -- 28
2021-01-15 15:00:00 19.8 13 Noroeste 33 Norte -- -- -- 27
2021-01-15 14:00:00 17.2 6 Sudoeste 15 Sur -- -- -- 45
2021-01-15 13:00:00 16 4 Sur 12 Sudeste -- -- -- 45
2021-01-15 12:00:00 15.2 6 Sudeste 13 Sudeste -- -- -- 52
2021-01-15 11:00:00 14.7 5 Sudeste 15 Este -- -- -- 47
2021-01-15 10:00:00 10.8 0 Calma 5 Nordeste -- -- -- 57
2021-01-15 09:00:00 10.1 3 Sudoeste 18 Noroeste -- -- -- 47
2021-01-15 08:00:00 11.7 4 Norte 20 Nordeste -- -- -- 42
2021-01-15 07:00:00 12.2 6 Norte 23 Nordeste -- -- -- 38
2021-01-15 06:00:00 12.3 9 Norte 32 Noroeste -- -- -- 38
2021-01-15 05:00:00 12.1 14 Noroeste 34 Norte -- -- -- 40
2021-01-15 04:00:00 12.6 12 Noroeste 39 Norte -- -- -- 39
2021-01-15 03:00:00 11.9 17 Noroeste 49 Noroeste -- -- -- 43
2021-01-15 02:00:00 11.8 21 Noroeste 54 Noroeste -- -- -- 45
2021-01-15 01:00:00 12.2 21 Noroeste 51 Noroeste -- -- -- 43
2021-01-15 00:00:00 12.6 19 Noroeste 49 Noroeste -- -- -- 40
2021-01-14 23:00:00 12.7 18 Noroeste 49 Noroeste -- -- -- 40
2021-01-14 22:00:00 12.4 21 Noroeste 53 Noroeste -- -- -- 44
2021-01-14 21:00:00 12.9 19 Noroeste 44 Noroeste -- -- -- 42
2021-01-14 20:00:00 12.8 18 Noroeste 41 Norte -- -- -- 44
2021-01-14 19:00:00 13.6 17 Noroeste 48 Norte -- -- -- 41
2021-01-14 18:00:00 14.6 15 Noroeste 40 Noroeste -- -- -- 35
2021-01-14 17:00:00 16 18 Norte 48 Noroeste -- -- -- 30
2021-01-14 16:00:00 17.6 14 Norte 36 Oeste -- -- -- 26
2021-01-14 15:00:00 17.7 10 Norte 45 Norte -- -- -- 27
2021-01-14 14:00:00 17.1 19 Norte 51 Norte -- -- -- 26
2021-01-14 13:00:00 16.6 12 Norte 51 Norte -- -- -- 30
2021-01-14 12:00:00 15.8 12 Norte 41 Norte -- -- -- 30
2021-01-14 11:00:00 14.5 7 Norte 35 Noroeste -- -- -- 31
2021-01-14 10:00:00 13 18 Noroeste 37 Noroeste -- -- -- 32
2021-01-14 09:00:00 12.8 6 Noroeste 49 Norte -- -- -- 31
2021-01-14 08:00:00 12 17 Noroeste 45 Norte -- -- -- 33
2021-01-14 07:00:00 11.9 14 Noroeste 39 Noroeste -- -- -- 35
2021-01-14 06:00:00 11.5 11 Noroeste 40 Noroeste -- -- -- 38
2021-01-14 05:00:00 11.4 15 Noroeste 45 Noroeste -- -- -- 39
2021-01-14 04:00:00 11.9 19 Norte 46 Norte -- -- -- 37
2021-01-14 03:00:00 11.9 14 Norte 39 Noroeste -- -- -- 36
2021-01-14 02:00:00 12.1 15 Noroeste 42 Norte -- -- -- 33
2021-01-14 01:00:00 12.5 16 Noroeste 35 Noroeste -- -- -- 33
2021-01-14 00:00:00 13.4 17 Noroeste 40 Noroeste -- -- -- 30
2021-01-13 23:00:00 13.1 8 Noroeste 31 Este -- -- -- 29
2021-01-13 22:00:00 12 5 Sudoeste 24 Oeste -- -- -- 43
2021-01-13 21:00:00 12.1 4 Oeste 25 Oeste -- -- -- 46
2021-01-13 20:00:00 10.3 2 Noroeste 13 Nordeste -- -- -- 56
2021-01-13 19:00:00 10.6 0 Calma 6 Oeste -- -- -- 54
2021-01-13 18:00:00 12.6 2 Oeste 12 Oeste -- -- -- 51
2021-01-13 17:00:00 15.5 6 Sudoeste 14 Oeste -- -- -- 38
2021-01-13 16:00:00 15.7 7 Sudoeste 17 Sudoeste -- -- -- 39
2021-01-13 15:00:00 15.5 10 Sudoeste 18 Sudoeste -- -- -- 48
2021-01-13 14:00:00 15.2 7 Sudoeste 17 Sudoeste -- -- -- 50
2021-01-13 13:00:00 14.5 8 Sudoeste 17 Sudoeste -- -- -- 52
2021-01-13 12:00:00 13.8 7 Sudoeste 14 Sudoeste -- -- -- 53
2021-01-13 11:00:00 12.8 4 Sur 7 Oeste -- -- -- 53
2021-01-13 10:00:00 8 0 Calma 2 Sur -- -- -- 69
2021-01-13 09:00:00 6.4 0 Calma 2 Sudoeste -- -- -- 70
2021-01-13 08:00:00 6.4 0 Calma 3 Sudoeste -- -- -- 63
2021-01-13 07:00:00 6.5 0 Calma 2 Noroeste -- -- -- 64
2021-01-13 06:00:00 7.4 0 Calma 4 Oeste -- -- -- 59
2021-01-13 05:00:00 8.4 0 Calma 8 Noroeste -- -- -- 58
2021-01-13 04:00:00 8.3 0 Calma 8 Noroeste -- -- -- 56
2021-01-13 03:00:00 8.5 2 Sudoeste 8 Noroeste -- -- -- 56
2021-01-13 02:00:00 9.2 3 Noroeste 9 Norte -- -- -- 51
2021-01-13 01:00:00 9.9 3 Noroeste 16 Noroeste -- -- -- 48
2021-01-13 00:00:00 10 3 Oeste 17 Norte -- -- -- 48
2021-01-12 23:00:00 10.1 6 Norte 21 Norte -- -- -- 51
2021-01-12 22:00:00 10.1 5 Noroeste 15 Noroeste -- -- -- 51
2021-01-12 21:00:00 9.1 0 Calma 8 Oeste -- -- -- 58
2021-01-12 20:00:00 9 0 Calma 9 Norte -- -- -- 61
2021-01-12 19:00:00 10.3 4 Noroeste 9 Noroeste -- -- -- 55
2021-01-12 18:00:00 11.4 2 Oeste 10 Oeste -- -- -- 62
2021-01-12 17:00:00 14.2 3 Oeste 14 Sudoeste -- -- -- 50
2021-01-12 16:00:00 14.5 6 Sudoeste 15 Sudeste -- -- -- 47
2021-01-12 15:00:00 14.6 6 Sur 16 Sudeste -- -- -- 48
2021-01-12 14:00:00 14.8 5 Sudoeste 15 Sudeste -- -- -- 46
2021-01-12 13:00:00 14.9 8 Oeste 16 Oeste -- -- -- 36
2021-01-12 12:00:00 14.2 8 Noroeste 24 Noroeste -- -- -- 37
2021-01-12 11:00:00 12.5 8 Noroeste 31 Noroeste -- -- -- 46
2021-01-12 10:00:00 10.7 11 Noroeste 30 Noroeste -- -- -- 52
2021-01-12 09:00:00 9.3 12 Norte 28 Noroeste -- -- -- 56
2021-01-12 08:00:00 8.9 8 Noroeste 24 Noroeste -- -- -- 58
2021-01-12 07:00:00 9.2 8 Noroeste 24 Norte -- -- -- 58
2021-01-12 06:00:00 9.1 7 Noroeste 26 Noroeste -- -- -- 59
2021-01-12 05:00:00 9.1 8 Noroeste 24 Noroeste -- -- -- 59
2021-01-12 04:00:00 9.2 10 Noroeste 23 Noroeste -- -- -- 59
2021-01-12 03:00:00 9.2 9 Noroeste 25 Noroeste -- -- -- 59
2021-01-12 02:00:00 9.6 8 Noroeste 27 Noroeste -- -- -- 58
2021-01-12 01:00:00 9.4 9 Noroeste 26 Noroeste -- -- -- 60
2021-01-12 00:00:00 9.4 9 Noroeste 22 Noroeste -- -- -- 62
2021-01-11 23:00:00 8.9 7 Noroeste 22 Noroeste -- -- -- 69
2021-01-11 22:00:00 8.9 6 Noroeste 18 Noroeste -- -- -- 71
2021-01-11 21:00:00 9.1 8 Noroeste 20 Noroeste -- -- -- 75
2021-01-11 20:00:00 8.2 2 Oeste 8 Noroeste -- -- -- 78
2021-01-11 19:00:00 8.9 0 Calma 7 Oeste -- -- -- 77
2021-01-11 18:00:00 10.4 2 Oeste 13 Sudoeste -- -- -- 71
2021-01-11 17:00:00 12.6 6 Sudoeste 13 Oeste -- -- -- 59
2021-01-11 16:00:00 13.1 4 Sur 11 Sudeste -- -- -- 58
2021-01-11 15:00:00 13.3 4 Sudeste 13 Sudeste -- -- -- 57
2021-01-11 14:00:00 12.8 6 Este 12 Este -- -- -- 58
2021-01-11 13:00:00 11.2 4 Nordeste 12 Norte -- -- -- 66
2021-01-11 12:00:00 9.9 0 Calma 13 Noroeste -- -- -- 75
2021-01-11 11:00:00 8.7 2 Este 18 Norte -- -- -- 85
2021-01-11 10:00:00 7.1 7 Noroeste 18 Noroeste -- -- -- 94
2021-01-11 09:00:00 6.2 4 Noroeste 18 Noroeste -- -- -- 95
2021-01-11 08:00:00 5.9 0 Calma 3 Noroeste -- -- -- 95
2021-01-11 07:00:00 5.8 0 Calma 6 Norte -- -- -- 95
2021-01-11 06:00:00 6.4 0 Calma 5 Norte -- -- -- 94
2021-01-11 05:00:00 6.4 2 Noroeste 18 Norte -- -- -- 94
2021-01-11 04:00:00 6.2 6 Noroeste 20 Noroeste -- -- -- 94
2021-01-11 03:00:00 6.6 3 Noroeste 9 Norte -- -- -- 95
2021-01-11 02:00:00 6.7 3 Oeste 10 Noroeste -- -- -- 94
2021-01-11 01:00:00 6.5 4 Noroeste 9 Oeste -- -- -- 94
2021-01-11 00:00:00 6.8 0 Calma 18 Norte -- -- -- 94
2021-01-10 23:00:00 6.6 0 Calma 3 Oeste -- -- -- 95
2021-01-10 22:00:00 6.6 5 Oeste 18 Sudoeste -- -- -- 95
2021-01-10 21:00:00 6.6 0 Calma 3 Nordeste -- -- -- 95
2021-01-10 20:00:00 6.6 0 Calma 9 Norte -- -- -- 94
2021-01-10 19:00:00 6.9 0 Calma 3 Noroeste -- -- -- 93
2021-01-10 18:00:00 7 0 Calma 3 Noroeste -- -- -- 92
2021-01-10 17:00:00 7.8 0 Calma 5 Noroeste -- -- -- 91
2021-01-10 16:00:00 7.5 0 Calma 9 Nordeste -- -- -- 90
2021-01-10 15:00:00 6.7 4 Nordeste 10 Nordeste -- -- -- 91
2021-01-10 14:00:00 5.7 2 Norte 16 Nordeste -- -- -- 92
2021-01-10 13:00:00 4.7 3 Nordeste 24 Norte -- -- -- 90
2021-01-10 12:00:00 7.8 5 Nordeste 13 Nordeste -- -- -- 90
2021-01-10 11:00:00 7.4 4 Nordeste 10 Nordeste -- -- -- 93
2021-01-10 10:00:00 6.3 0 Calma 3 Nordeste -- -- -- 92
2021-01-10 09:00:00 5.7 0 Calma 21 Sudoeste -- -- -- 88
2021-01-10 08:00:00 5.9 0 Calma 4 Oeste -- -- -- 81
2021-01-10 07:00:00 4.8 0 Calma 6 Oeste -- -- -- 84
2021-01-10 06:00:00 5.1 4 Noroeste 9 Oeste -- -- -- 85
2021-01-10 05:00:00 5.2 2 Oeste 6 Oeste -- -- -- 92
2021-01-10 04:00:00 6.3 0 Calma 7 Sudoeste -- -- -- 93
2021-01-10 03:00:00 6.3 0 Calma 4 Noroeste -- -- -- 92
2021-01-10 02:00:00 6.4 0 Calma 6 Oeste -- -- -- 91
2021-01-10 01:00:00 7.4 0 Calma 12 Sudoeste -- -- -- 89
2021-01-10 00:00:00 7.8 0 Calma 10 Oeste -- -- -- 88
2021-01-09 23:00:00 7.6 2 Sudoeste 10 Sudoeste -- -- -- 87
2021-01-09 22:00:00 7.5 5 Sudoeste 11 Sudoeste -- -- -- 85
2021-01-09 21:00:00 8.3 4 Noroeste 18 Oeste -- -- -- 80
2021-01-09 20:00:00 9.7 5 Sudoeste 17 Oeste -- -- -- 71
2021-01-09 19:00:00 10.1 5 Sudoeste 18 Sudoeste -- -- -- 65
2021-01-09 18:00:00 11 4 Sudoeste 19 Oeste -- -- -- 50
2021-01-09 17:00:00 12.5 5 Oeste 23 Sudoeste -- -- -- 37
2021-01-09 16:00:00 13.6 8 Sudoeste 26 Sudoeste -- -- -- 36
2021-01-09 15:00:00 13.6 10 Sudoeste 28 Sudoeste -- -- -- 40
2021-01-09 14:00:00 13.9 7 Oeste 22 Sudoeste -- -- -- 44
2021-01-09 13:00:00 13.3 6 Nordeste 17 Nordeste -- -- -- 41
2021-01-09 12:00:00 12.5 6 Norte 26 Norte -- -- -- 41
2021-01-09 11:00:00 11.4 5 Sudoeste 17 Sudoeste -- -- -- 56
2021-01-09 10:00:00 9.5 4 Oeste 25 Sudoeste -- -- -- 66
2021-01-09 09:00:00 9.2 7 Sudoeste 18 Oeste -- -- -- 78
2021-01-09 08:00:00 8.6 5 Sudoeste 15 Oeste -- -- -- 83
2021-01-09 07:00:00 8.9 4 Oeste 13 Oeste -- -- -- 82
2021-01-09 06:00:00 9.7 3 Sudoeste 18 Oeste -- -- -- 77
2021-01-09 05:00:00 10.6 5 Oeste 20 Sudoeste -- -- -- 76
2021-01-09 04:00:00 10.5 7 Sudoeste 24 Oeste -- -- -- 90
2021-01-09 03:00:00 10.3 3 Sudeste 14 Oeste -- -- -- 94
2021-01-09 02:00:00 10.3 4 Sur 22 Sudoeste -- -- -- 95
2021-01-09 01:00:00 11 9 Sudoeste 24 Sudoeste -- -- -- 96
2021-01-09 00:00:00 12.4 5 Sur 19 Sudoeste -- -- -- 96
2021-01-08 23:00:00 13.1 3 Sur 40 Sur -- -- -- 96
2021-01-08 22:00:00 12.2 21 Sudeste 52 Sudeste -- -- -- 95
2021-01-08 21:00:00 12.2 25 Sudeste 57 Sudeste -- -- -- 94
2021-01-08 20:00:00 12.3 21 Sudeste 46 Este -- -- -- 93
2021-01-08 19:00:00 12.3 13 Sudeste 48 Sudeste -- -- -- 92
2021-01-08 18:00:00 12.4 16 Sudeste 48 Sudeste -- -- -- 92
2021-01-08 17:00:00 12.2 20 Sudeste 44 Sudeste -- -- -- 94
2021-01-08 16:00:00 11.7 20 Sudeste 51 Este -- -- -- 95
2021-01-08 15:00:00 11.6 22 Sudeste 54 Sudeste -- -- -- 93
2021-01-08 14:00:00 11.6 20 Sudeste -- -- -- -- -- 92
2021-01-08 13:00:00 11.6 17 Sudeste 49 Este -- -- -- 92
2021-01-08 12:00:00 11.5 22 Sudeste 53 Sudeste -- -- -- 92
2021-01-08 11:00:00 11.4 28 Sudeste 49 Sur -- -- -- 93
2021-01-08 10:00:00 11.2 17 Sudeste 41 Sur -- -- -- 96
2021-01-08 09:00:00 11.2 16 Sudeste 39 Este -- -- -- 97
2021-01-08 08:00:00 10.9 12 Este 34 Este 0 -- -- 97
2021-01-08 07:00:00 11 12 Sudeste 28 Sudeste 0 -- -- 97
2021-01-08 06:00:00 11.1 3 Norte 12 Nordeste 0 -- -- 97
2021-01-08 05:00:00 10.7 3 Norte 10 Nordeste 0 -- -- 97
2021-01-08 04:00:00 10.7 4 Nordeste 10 Nordeste 0 -- -- 97
2021-01-08 03:00:00 10.7 4 Nordeste 17 Sudeste 0 -- -- 97
2021-01-08 02:00:00 10.8 6 Nordeste 20 Sudeste 0 -- -- 97
2021-01-08 01:00:00 10.9 10 Este 24 Este 0 -- -- 97
2021-01-08 00:00:00 11 3 Sudeste 23 Sudeste 0 -- -- 97
2021-01-07 23:00:00 11 6 Este 19 Sudeste 0 -- -- 97
2021-01-07 22:00:00 11 3 Sudeste 24 Sudeste 0 -- -- 97
2021-01-07 21:00:00 11.1 6 Este 20 Sudeste 0 -- -- 97
2021-01-07 20:00:00 10.9 6 Sudeste 18 Sudeste 0 -- -- 97
2021-01-07 19:00:00 10.7 0 Calma 7 Nordeste 0 -- -- 97
2021-01-07 18:00:00 10.8 0 Calma 5 Noroeste 0 -- -- 97
2021-01-07 17:00:00 10.8 3 Nordeste 11 Este 0 -- -- 96
2021-01-07 16:00:00 10.8 4 Nordeste 16 Este 0 -- -- 96
2021-01-07 15:00:00 10.6 6 Sudeste 18 Este 0 -- -- 96
2021-01-07 14:00:00 10.5 9 Sudeste 23 Sudeste 0 -- -- 96
2021-01-07 13:00:00 10.4 8 Este 24 Sudeste 0 -- -- 96
2021-01-07 12:00:00 10.3 8 Sudeste 24 Este 0 -- -- 96
2021-01-07 11:00:00 10.3 5 Sur 28 Sudeste 0 -- -- 95
2021-01-07 10:00:00 10 5 Sudeste 23 Sudeste 0 -- -- 94
2021-01-07 09:00:00 9.6 3 Sudoeste 6 Norte 0 -- -- 93
2021-01-07 08:00:00 9.6 2 Norte 10 Norte 0 -- -- 92
2021-01-07 07:00:00 9.6 0 Calma 9 Nordeste 0 -- -- 91
2021-01-07 06:00:00 9.5 4 Nordeste 13 Nordeste 0 -- -- 90
2021-01-07 05:00:00 9.5 0 Calma 15 Nordeste 0 -- -- 90
2021-01-07 04:00:00 9.2 0 Calma 18 Nordeste 0 -- -- 90
2021-01-07 03:00:00 9 4 Norte 14 Este 0 -- -- 91
2021-01-07 02:00:00 8.9 0 Calma 19 Nordeste 0 -- -- 91
2021-01-07 01:00:00 9.2 7 Nordeste 21 Nordeste 0 -- -- 91
2021-01-07 00:00:00 9.4 10 Nordeste 23 Nordeste 0 -- -- 92
2021-01-06 23:00:00 9.8 10 Nordeste 28 Sudeste 0 -- -- 91
2021-01-06 22:00:00 10.1 14 Este 36 Sudeste 0 -- -- 88
2021-01-06 21:00:00 10.3 14 Este 36 Este 0 -- -- 88
2021-01-06 20:00:00 10.4 15 Este 33 Sudeste 0 -- -- 86
2021-01-06 19:00:00 10.8 15 Este 31 Sudeste 0 -- -- 81
2021-01-06 18:00:00 11.3 12 Este 26 Sudoeste 0 -- -- 77
2021-01-06 17:00:00 11.6 10 Sudeste 26 Sudeste 0 -- -- 68
2021-01-06 16:00:00 11.2 10 Este 22 Este 0 -- -- 73
2021-01-06 15:00:00 10.7 5 Sudeste 17 Este 0 -- -- 78
2021-01-06 14:00:00 10.5 7 Este 19 Este 0 -- -- 77
2021-01-06 13:00:00 11.5 7 Sudeste 25 Sudeste 0 -- -- 70
2021-01-06 12:00:00 11.3 9 Sudeste 22 Este 0 -- -- 70
2021-01-06 11:00:00 11 7 Sudeste 22 Sudeste 0 -- -- 73
2021-01-06 10:00:00 10.6 7 Sudeste 21 Este 0 -- -- 79
2021-01-06 09:00:00 9.9 8 Sudeste 19 Sudeste 0 -- -- 90
2021-01-06 08:00:00 9.1 5 Este 15 Sudeste 0 -- -- 95
2021-01-06 07:00:00 9.5 0 Calma 11 Noroeste 0 -- -- 95
2021-01-06 06:00:00 9.5 2 Sudoeste 8 Sudoeste 0 -- -- 95
2021-01-06 05:00:00 9.2 5 Este 13 Sudeste 0 -- -- 95
2021-01-06 04:00:00 9.4 0 Calma 3 Norte 0 -- -- 95
2021-01-06 03:00:00 9.4 0 Calma 5 Oeste 0 -- -- 94
2021-01-06 02:00:00 9.6 0 Calma 6 Oeste 0 -- -- 93
2021-01-06 01:00:00 9.8 0 Calma 15 Este 0 -- -- 91
2021-01-06 00:00:00 9.9 0 Calma 18 Sur 0 -- -- 88
2021-01-05 23:00:00 10.1 4 Sudoeste 19 Este 1.8 -- -- 86
2021-01-05 22:00:00 11.3 8 Sudeste 23 Sudeste 0.4 -- -- 79
2021-01-05 21:00:00 12 3 Sudeste 11 Sudeste 0 -- -- 63
2021-01-05 20:00:00 12.1 6 Sudeste 14 Este 0 -- -- 58
2021-01-05 19:00:00 11.9 4 Sudeste 10 Sudeste 0 -- -- 57
2021-01-05 18:00:00 12.1 2 Sur 7 Sudeste 0 -- -- 61
2021-01-05 17:00:00 12.4 3 Sur 12 Oeste 0 -- -- 59
2021-01-05 16:00:00 12.9 4 Sudoeste 14 Sudeste 0 -- -- 57
2021-01-05 15:00:00 13.3 6 Sur 18 Sudeste 0 -- -- 56
2021-01-05 14:00:00 13.3 3 Sudoeste 10 Oeste 0 -- -- 53
2021-01-05 13:00:00 13.1 4 Sudoeste 15 Este 0 -- -- 53
2021-01-05 12:00:00 14.1 8 Este 14 Este 0 -- -- 46
2021-01-05 11:00:00 13.3 4 Este 13 Este 0 -- -- 49
2021-01-05 10:00:00 10.2 3 Noroeste 10 Noroeste 0 -- -- 60
2021-01-05 09:00:00 9.2 2 Oeste 15 Noroeste 0 -- -- 61
2021-01-05 08:00:00 9.3 0 Calma 20 Norte 0 -- -- 59
2021-01-05 07:00:00 9.7 9 Noroeste 20 Noroeste 0 -- -- 59
2021-01-05 06:00:00 9.3 7 Noroeste 19 Noroeste 0 -- -- 61
2021-01-05 05:00:00 9.1 6 Noroeste 16 Noroeste 0 -- -- 60
2021-01-05 04:00:00 9 6 Noroeste 17 Norte 0 -- -- 59
2021-01-05 03:00:00 8.9 4 Norte 12 Noroeste 0 -- -- 58
2021-01-05 02:00:00 8.2 4 Noroeste 10 Noroeste 0 -- -- 59
2021-01-05 01:00:00 8.6 5 Noroeste 14 Noroeste 0 -- -- 57
2021-01-05 00:00:00 8.9 5 Noroeste 15 Noroeste 0 -- -- 55
2021-01-04 23:00:00 8.5 4 Noroeste 13 Norte 0 -- -- 55
2021-01-04 22:00:00 8.8 0 Calma 13 Noroeste 0 -- -- 53
2021-01-04 21:00:00 9.9 4 Norte 17 Noroeste 0 -- -- 46
2021-01-04 20:00:00 10.2 6 Norte 19 Norte 0 -- -- 48
2021-01-04 19:00:00 10.1 5 Noroeste 14 Norte 0 -- -- 48
2021-01-04 18:00:00 11.4 3 Norte 18 Nordeste 0 -- -- 43
2021-01-04 17:00:00 13.7 4 Norte 20 Nordeste 0 -- -- 37
2021-01-04 16:00:00 15 4 Nordeste 19 Nordeste 0 -- -- 35
2021-01-04 15:00:00 15 5 Norte 28 Sudoeste 0 -- -- 37
2021-01-04 14:00:00 14.4 6 Oeste 18 Oeste 0 -- -- 38
2021-01-04 13:00:00 13.6 6 Nordeste 21 Norte 0 -- -- 42
2021-01-04 12:00:00 12.5 5 Norte 21 Norte 0 -- -- 45
2021-01-04 11:00:00 11.9 4 Norte 21 Norte 0 -- -- 46
2021-01-04 10:00:00 9.7 5 Norte 14 Norte 0 -- -- 51
2021-01-04 09:00:00 7.6 4 Norte 12 Norte 0 -- -- 60
2021-01-04 08:00:00 8 2 Norte 23 Noroeste 0 -- -- 57
2021-01-04 07:00:00 8 3 Oeste 16 Noroeste 0 -- -- 56
2021-01-04 06:00:00 7.9 6 Norte 26 Norte 0 -- -- 54
2021-01-04 05:00:00 7.6 5 Norte 22 Norte 0 -- -- 54
2021-01-04 04:00:00 7.7 4 Noroeste 17 Norte 0 -- -- 52
2021-01-04 03:00:00 7 2 Norte 12 Norte 0 -- -- 52
2021-01-04 02:00:00 7.9 5 Norte 23 Noroeste 0 -- -- 45
2021-01-04 01:00:00 9 10 Norte 28 Noroeste 0 -- -- 41
2021-01-04 00:00:00 9.3 8 Noroeste 26 Norte 0 -- -- 38
2021-01-03 23:00:00 9 8 Noroeste 19 Noroeste 0 -- -- 39
2021-01-03 22:00:00 9 5 Norte 23 Norte 0 -- -- 38
2021-01-03 21:00:00 9.1 4 Nordeste 19 Noroeste 0 -- -- 36
2021-01-03 20:00:00 9.2 5 Norte 15 Norte 0 -- -- 37
2021-01-03 19:00:00 9.8 7 Noroeste 18 Norte 0 -- -- 36
2021-01-03 18:00:00 10.3 4 Noroeste 13 Noroeste 0 -- -- 34
2021-01-03 17:00:00 13.3 3 Norte 17 Nordeste 0 -- -- 25
2021-01-03 16:00:00 14.6 5 Norte 28 Nordeste 0 -- -- 24
2021-01-03 15:00:00 14.3 7 Nordeste 25 Nordeste 0 -- -- 25
2021-01-03 14:00:00 13.7 9 Norte 24 Noroeste 0 -- -- 22
2021-01-03 13:00:00 13.2 9 Norte 26 Norte 0 -- -- 25
2021-01-03 12:00:00 12.1 8 Norte 31 Noroeste 0 -- -- 31
2021-01-03 11:00:00 9.9 10 Noroeste 30 Noroeste 0 -- -- 39
2021-01-03 10:00:00 7.7 10 Noroeste 32 Noroeste 0 -- -- 46
2021-01-03 09:00:00 6.8 12 Noroeste 31 Noroeste 0 -- -- 48
2021-01-03 08:00:00 6.7 13 Norte 40 Norte 0 -- -- 48
2021-01-03 07:00:00 6.5 9 Noroeste 28 Noroeste 0 -- -- 49
2021-01-03 06:00:00 6.8 6 Noroeste 22 Noroeste 0 -- -- 48
2021-01-03 05:00:00 7.2 5 Noroeste 27 Norte 0 -- -- 47
2021-01-03 04:00:00 7.8 13 Norte 34 Norte 0 -- -- 45
2021-01-03 03:00:00 7.5 13 Norte 31 Norte 0 -- -- 47
2021-01-03 02:00:00 7.2 8 Norte 23 Noroeste 0 -- -- 51
2021-01-03 01:00:00 7.8 6 Norte 27 Norte 0 -- -- 50
2021-01-03 00:00:00 8.3 6 Norte 21 Noroeste 0 -- -- 50
2021-01-02 23:00:00 8.7 4 Norte 19 Norte 0 -- -- 49
2021-01-02 22:00:00 8.2 3 Norte 20 Noroeste 0 -- -- 51
2021-01-02 21:00:00 8.7 8 Norte 21 Noroeste 0 -- -- 48
2021-01-02 20:00:00 8.9 4 Norte 17 Nordeste 0 -- -- 47
2021-01-02 19:00:00 9.6 4 Norte 22 Norte 0 -- -- 44
2021-01-02 18:00:00 10.5 5 Norte 22 Norte 0 -- -- 42
2021-01-02 17:00:00 12.3 5 Noroeste 19 Nordeste 0 -- -- 37
2021-01-02 16:00:00 13.9 5 Norte 24 Nordeste 0 -- -- 34
2021-01-02 15:00:00 14.1 4 Nordeste 20 Nordeste 0 -- -- 33
2021-01-02 14:00:00 13.8 7 Norte 31 Noroeste 0 -- -- 35